sensor_id;sensor_type;location;lat;lon;timestamp;P1;durP1;ratioP1;P2;durP2;ratioP2
14613;SDS011;7393;51.446;6.800;2023-04-25T00:00:37;12.23;;;4.40;;
14613;SDS011;7393;51.446;6.800;2023-04-25T00:03:03;9.87;;;4.30;;
14613;SDS011;7393;51.446;6.800;2023-04-25T00:05:31;10.03;;;4.33;;
14613;SDS011;7393;51.446;6.800;2023-04-25T00:07:58;9.80;;;3.77;;
14613;SDS011;7393;51.446;6.800;2023-04-25T00:10:26;10.07;;;4.20;;
14613;SDS011;7393;51.446;6.800;2023-04-25T00:12:53;12.20;;;5.00;;
14613;SDS011;7393;51.446;6.800;2023-04-25T00:15:20;11.53;;;4.50;;
14613;SDS011;7393;51.446;6.800;2023-04-25T00:17:47;12.23;;;3.97;;
14613;SDS011;7393;51.446;6.800;2023-04-25T00:20:13;8.60;;;4.20;;
14613;SDS011;7393;51.446;6.800;2023-04-25T00:22:41;14.00;;;4.47;;
14613;SDS011;7393;51.446;6.800;2023-04-25T00:25:08;12.10;;;3.87;;
14613;SDS011;7393;51.446;6.800;2023-04-25T00:27:36;13.17;;;4.63;;
14613;SDS011;7393;51.446;6.800;2023-04-25T00:30:04;11.87;;;5.17;;
14613;SDS011;7393;51.446;6.800;2023-04-25T00:32:32;11.50;;;5.17;;
14613;SDS011;7393;51.446;6.800;2023-04-25T00:34:59;11.30;;;4.37;;
14613;SDS011;7393;51.446;6.800;2023-04-25T00:37:25;13.30;;;4.60;;
14613;SDS011;7393;51.446;6.800;2023-04-25T00:39:52;14.90;;;4.83;;
14613;SDS011;7393;51.446;6.800;2023-04-25T00:42:20;14.13;;;4.80;;
14613;SDS011;7393;51.446;6.800;2023-04-25T00:44:49;13.70;;;4.70;;
14613;SDS011;7393;51.446;6.800;2023-04-25T00:47:17;10.03;;;4.93;;
14613;SDS011;7393;51.446;6.800;2023-04-25T00:49:44;13.13;;;5.03;;
14613;SDS011;7393;51.446;6.800;2023-04-25T00:52:11;14.33;;;4.80;;
14613;SDS011;7393;51.446;6.800;2023-04-25T00:54:38;14.20;;;4.90;;
14613;SDS011;7393;51.446;6.800;2023-04-25T00:57:05;10.30;;;4.33;;
14613;SDS011;7393;51.446;6.800;2023-04-25T00:59:32;9.70;;;4.80;;
14613;SDS011;7393;51.446;6.800;2023-04-25T01:02:01;9.87;;;4.50;;
14613;SDS011;7393;51.446;6.800;2023-04-25T01:04:27;13.17;;;4.73;;
14613;SDS011;7393;51.446;6.800;2023-04-25T01:06:54;13.33;;;4.70;;
14613;SDS011;7393;51.446;6.800;2023-04-25T01:09:22;12.83;;;4.33;;
14613;SDS011;7393;51.446;6.800;2023-04-25T01:11:48;12.23;;;4.80;;
14613;SDS011;7393;51.446;6.800;2023-04-25T01:14:15;11.27;;;4.30;;
14613;SDS011;7393;51.446;6.800;2023-04-25T01:16:42;8.30;;;4.40;;
14613;SDS011;7393;51.446;6.800;2023-04-25T01:19:11;8.40;;;4.27;;
14613;SDS011;7393;51.446;6.800;2023-04-25T01:21:44;8.20;;;4.40;;
14613;SDS011;7393;51.446;6.800;2023-04-25T01:24:11;12.87;;;4.37;;
14613;SDS011;7393;51.446;6.800;2023-04-25T01:26:39;8.20;;;4.53;;
14613;SDS011;7393;51.446;6.800;2023-04-25T01:29:09;8.63;;;4.53;;
14613;SDS011;7393;51.446;6.800;2023-04-25T01:31:36;12.13;;;4.80;;
14613;SDS011;7393;51.446;6.800;2023-04-25T01:34:03;11.07;;;4.43;;
14613;SDS011;7393;51.446;6.800;2023-04-25T01:36:30;7.53;;;4.43;;
14613;SDS011;7393;51.446;6.800;2023-04-25T01:38:58;9.97;;;4.60;;
14613;SDS011;7393;51.446;6.800;2023-04-25T01:41:25;9.80;;;4.37;;
14613;SDS011;7393;51.446;6.800;2023-04-25T01:43:53;7.77;;;4.17;;
14613;SDS011;7393;51.446;6.800;2023-04-25T01:46:20;10.77;;;4.53;;
14613;SDS011;7393;51.446;6.800;2023-04-25T01:48:47;11.07;;;4.50;;
14613;SDS011;7393;51.446;6.800;2023-04-25T01:51:13;11.00;;;4.67;;
14613;SDS011;7393;51.446;6.800;2023-04-25T01:53:41;12.27;;;4.93;;
14613;SDS011;7393;51.446;6.800;2023-04-25T01:56:10;11.37;;;4.77;;
14613;SDS011;7393;51.446;6.800;2023-04-25T01:58:37;9.60;;;4.60;;
14613;SDS011;7393;51.446;6.800;2023-04-25T02:01:04;9.33;;;4.87;;
14613;SDS011;7393;51.446;6.800;2023-04-25T02:03:31;6.83;;;5.10;;
14613;SDS011;7393;51.446;6.800;2023-04-25T02:05:58;11.20;;;4.70;;
14613;SDS011;7393;51.446;6.800;2023-04-25T02:08:25;10.13;;;4.70;;
14613;SDS011;7393;51.446;6.800;2023-04-25T02:10:52;8.20;;;4.03;;
14613;SDS011;7393;51.446;6.800;2023-04-25T02:13:20;10.43;;;4.80;;
14613;SDS011;7393;51.446;6.800;2023-04-25T02:15:46;12.43;;;5.00;;
14613;SDS011;7393;51.446;6.800;2023-04-25T02:18:13;8.23;;;4.00;;
14613;SDS011;7393;51.446;6.800;2023-04-25T02:20:41;7.47;;;4.10;;
14613;SDS011;7393;51.446;6.800;2023-04-25T02:23:08;9.83;;;4.17;;
14613;SDS011;7393;51.446;6.800;2023-04-25T02:25:35;11.83;;;4.47;;
14613;SDS011;7393;51.446;6.800;2023-04-25T02:28:01;11.10;;;4.10;;
14613;SDS011;7393;51.446;6.800;2023-04-25T02:30:30;10.93;;;4.73;;
14613;SDS011;7393;51.446;6.800;2023-04-25T02:32:57;7.50;;;4.07;;
14613;SDS011;7393;51.446;6.800;2023-04-25T02:35:23;9.60;;;4.40;;
14613;SDS011;7393;51.446;6.800;2023-04-25T02:37:50;11.13;;;4.77;;
14613;SDS011;7393;51.446;6.800;2023-04-25T02:40:17;10.07;;;4.37;;
14613;SDS011;7393;51.446;6.800;2023-04-25T02:42:44;8.60;;;4.27;;
14613;SDS011;7393;51.446;6.800;2023-04-25T02:45:11;11.93;;;4.27;;
14613;SDS011;7393;51.446;6.800;2023-04-25T02:47:39;7.57;;;4.33;;
14613;SDS011;7393;51.446;6.800;2023-04-25T02:50:07;9.03;;;4.03;;
14613;SDS011;7393;51.446;6.800;2023-04-25T02:52:33;14.60;;;4.97;;
14613;SDS011;7393;51.446;6.800;2023-04-25T02:55:00;12.03;;;4.20;;
14613;SDS011;7393;51.446;6.800;2023-04-25T02:57:27;9.50;;;4.23;;
14613;SDS011;7393;51.446;6.800;2023-04-25T02:59:54;11.90;;;4.23;;
14613;SDS011;7393;51.446;6.800;2023-04-25T03:02:20;11.43;;;4.50;;
14613;SDS011;7393;51.446;6.800;2023-04-25T03:04:48;12.83;;;4.57;;
14613;SDS011;7393;51.446;6.800;2023-04-25T03:07:15;10.00;;;4.13;;
14613;SDS011;7393;51.446;6.800;2023-04-25T03:09:42;12.40;;;4.60;;
14613;SDS011;7393;51.446;6.800;2023-04-25T03:12:08;8.20;;;4.50;;
14613;SDS011;7393;51.446;6.800;2023-04-25T03:14:35;11.43;;;4.50;;
14613;SDS011;7393;51.446;6.800;2023-04-25T03:17:02;13.83;;;4.93;;
14613;SDS011;7393;51.446;6.800;2023-04-25T03:19:29;12.33;;;4.67;;
14613;SDS011;7393;51.446;6.800;2023-04-25T03:21:57;15.03;;;4.63;;
14613;SDS011;7393;51.446;6.800;2023-04-25T03:24:24;14.67;;;5.27;;
14613;SDS011;7393;51.446;6.800;2023-04-25T03:26:52;11.13;;;4.00;;
14613;SDS011;7393;51.446;6.800;2023-04-25T03:29:18;16.00;;;4.73;;
14613;SDS011;7393;51.446;6.800;2023-04-25T03:31:49;15.13;;;4.93;;
14613;SDS011;7393;51.446;6.800;2023-04-25T03:34:16;9.67;;;4.63;;
14613;SDS011;7393;51.446;6.800;2023-04-25T03:36:42;12.33;;;4.33;;
14613;SDS011;7393;51.446;6.800;2023-04-25T03:39:11;15.53;;;5.00;;
14613;SDS011;7393;51.446;6.800;2023-04-25T03:41:37;13.30;;;4.10;;
14613;SDS011;7393;51.446;6.800;2023-04-25T03:44:04;12.23;;;4.20;;
14613;SDS011;7393;51.446;6.800;2023-04-25T03:46:31;13.43;;;4.67;;
14613;SDS011;7393;51.446;6.800;2023-04-25T03:48:57;10.57;;;4.63;;
14613;SDS011;7393;51.446;6.800;2023-04-25T03:51:25;15.97;;;4.77;;
14613;SDS011;7393;51.446;6.800;2023-04-25T03:53:52;14.17;;;4.50;;
14613;SDS011;7393;51.446;6.800;2023-04-25T03:56:20;16.30;;;5.27;;
14613;SDS011;7393;51.446;6.800;2023-04-25T03:58:47;14.63;;;5.17;;
14613;SDS011;7393;51.446;6.800;2023-04-25T04:01:13;12.77;;;4.87;;
14613;SDS011;7393;51.446;6.800;2023-04-25T04:03:40;11.23;;;4.63;;
14613;SDS011;7393;51.446;6.800;2023-04-25T04:06:07;9.00;;;4.53;;
14613;SDS011;7393;51.446;6.800;2023-04-25T04:08:34;12.20;;;4.77;;
14613;SDS011;7393;51.446;6.800;2023-04-25T04:11:01;10.33;;;4.90;;
14613;SDS011;7393;51.446;6.800;2023-04-25T04:13:29;16.40;;;4.83;;
14613;SDS011;7393;51.446;6.800;2023-04-25T04:15:56;11.60;;;4.60;;
14613;SDS011;7393;51.446;6.800;2023-04-25T04:18:23;15.90;;;4.97;;
14613;SDS011;7393;51.446;6.800;2023-04-25T04:20:50;14.87;;;4.70;;
14613;SDS011;7393;51.446;6.800;2023-04-25T04:23:17;15.37;;;5.20;;
14613;SDS011;7393;51.446;6.800;2023-04-25T04:25:43;13.77;;;4.87;;
14613;SDS011;7393;51.446;6.800;2023-04-25T04:28:11;12.07;;;4.40;;
14613;SDS011;7393;51.446;6.800;2023-04-25T04:30:39;8.50;;;4.20;;
14613;SDS011;7393;51.446;6.800;2023-04-25T04:33:07;15.80;;;5.73;;
14613;SDS011;7393;51.446;6.800;2023-04-25T04:35:34;15.30;;;5.17;;
14613;SDS011;7393;51.446;6.800;2023-04-25T04:38:01;14.37;;;5.40;;
14613;SDS011;7393;51.446;6.800;2023-04-25T04:40:28;14.80;;;5.83;;
14613;SDS011;7393;51.446;6.800;2023-04-25T04:42:56;16.60;;;5.67;;
14613;SDS011;7393;51.446;6.800;2023-04-25T04:45:23;20.67;;;6.73;;
14613;SDS011;7393;51.446;6.800;2023-04-25T04:47:51;13.63;;;5.87;;
14613;SDS011;7393;51.446;6.800;2023-04-25T04:50:20;18.40;;;6.20;;
14613;SDS011;7393;51.446;6.800;2023-04-25T04:52:47;15.83;;;5.70;;
14613;SDS011;7393;51.446;6.800;2023-04-25T04:55:13;20.43;;;6.20;;
14613;SDS011;7393;51.446;6.800;2023-04-25T04:57:40;18.37;;;6.43;;
14613;SDS011;7393;51.446;6.800;2023-04-25T05:00:07;20.43;;;6.17;;
14613;SDS011;7393;51.446;6.800;2023-04-25T05:02:36;17.23;;;6.57;;
14613;SDS011;7393;51.446;6.800;2023-04-25T05:05:05;15.37;;;6.50;;
14613;SDS011;7393;51.446;6.800;2023-04-25T05:07:32;16.43;;;5.83;;
14613;SDS011;7393;51.446;6.800;2023-04-25T05:09:59;14.87;;;6.00;;
14613;SDS011;7393;51.446;6.800;2023-04-25T05:12:26;17.70;;;6.60;;
14613;SDS011;7393;51.446;6.800;2023-04-25T05:14:53;17.60;;;5.73;;
14613;SDS011;7393;51.446;6.800;2023-04-25T05:17:20;14.00;;;6.07;;
14613;SDS011;7393;51.446;6.800;2023-04-25T05:19:46;14.00;;;5.90;;
14613;SDS011;7393;51.446;6.800;2023-04-25T05:22:14;17.27;;;5.80;;
14613;SDS011;7393;51.446;6.800;2023-04-25T05:24:41;14.40;;;6.00;;
14613;SDS011;7393;51.446;6.800;2023-04-25T05:27:08;17.87;;;6.00;;
14613;SDS011;7393;51.446;6.800;2023-04-25T05:29:35;17.13;;;5.97;;
14613;SDS011;7393;51.446;6.800;2023-04-25T05:32:02;13.17;;;5.67;;
14613;SDS011;7393;51.446;6.800;2023-04-25T05:34:29;14.37;;;5.70;;
14613;SDS011;7393;51.446;6.800;2023-04-25T05:36:56;16.57;;;5.90;;
14613;SDS011;7393;51.446;6.800;2023-04-25T05:39:24;14.77;;;5.87;;
14613;SDS011;7393;51.446;6.800;2023-04-25T05:41:51;16.63;;;5.83;;
14613;SDS011;7393;51.446;6.800;2023-04-25T05:44:18;15.67;;;5.37;;
14613;SDS011;7393;51.446;6.800;2023-04-25T05:46:45;16.03;;;5.70;;
14613;SDS011;7393;51.446;6.800;2023-04-25T05:49:11;21.43;;;5.17;;
14613;SDS011;7393;51.446;6.800;2023-04-25T05:51:38;18.93;;;5.33;;
14613;SDS011;7393;51.446;6.800;2023-04-25T05:54:05;18.23;;;5.33;;
14613;SDS011;7393;51.446;6.800;2023-04-25T05:56:33;18.17;;;4.93;;
14613;SDS011;7393;51.446;6.800;2023-04-25T05:59:00;17.10;;;4.67;;
14613;SDS011;7393;51.446;6.800;2023-04-25T06:01:27;17.37;;;4.83;;
14613;SDS011;7393;51.446;6.800;2023-04-25T06:03:53;13.20;;;4.70;;
14613;SDS011;7393;51.446;6.800;2023-04-25T06:06:21;13.43;;;4.83;;
14613;SDS011;7393;51.446;6.800;2023-04-25T06:08:48;12.13;;;4.50;;
14613;SDS011;7393;51.446;6.800;2023-04-25T06:11:15;17.80;;;5.20;;
14613;SDS011;7393;51.446;6.800;2023-04-25T06:13:43;12.40;;;4.13;;
14613;SDS011;7393;51.446;6.800;2023-04-25T06:16:10;13.07;;;4.10;;
14613;SDS011;7393;51.446;6.800;2023-04-25T06:18:37;16.10;;;4.53;;
14613;SDS011;7393;51.446;6.800;2023-04-25T06:21:03;19.97;;;4.60;;
14613;SDS011;7393;51.446;6.800;2023-04-25T06:23:30;12.97;;;5.07;;
14613;SDS011;7393;51.446;6.800;2023-04-25T06:25:57;16.20;;;5.83;;
14613;SDS011;7393;51.446;6.800;2023-04-25T06:28:24;14.33;;;5.00;;
14613;SDS011;7393;51.446;6.800;2023-04-25T06:30:52;11.80;;;4.17;;
14613;SDS011;7393;51.446;6.800;2023-04-25T06:33:19;16.33;;;5.07;;
14613;SDS011;7393;51.446;6.800;2023-04-25T06:35:46;20.77;;;5.57;;
14613;SDS011;7393;51.446;6.800;2023-04-25T06:38:13;22.07;;;5.50;;
14613;SDS011;7393;51.446;6.800;2023-04-25T06:40:39;17.37;;;5.23;;
14613;SDS011;7393;51.446;6.800;2023-04-25T06:43:06;16.93;;;5.63;;
14613;SDS011;7393;51.446;6.800;2023-04-25T06:45:33;18.47;;;5.50;;
14613;SDS011;7393;51.446;6.800;2023-04-25T06:48:01;16.03;;;5.77;;
14613;SDS011;7393;51.446;6.800;2023-04-25T06:50:28;17.60;;;6.10;;
14613;SDS011;7393;51.446;6.800;2023-04-25T06:52:55;10.67;;;4.37;;
14613;SDS011;7393;51.446;6.800;2023-04-25T06:55:21;11.93;;;4.30;;
14613;SDS011;7393;51.446;6.800;2023-04-25T06:57:51;9.07;;;3.17;;
14613;SDS011;7393;51.446;6.800;2023-04-25T07:00:18;14.40;;;4.33;;
14613;SDS011;7393;51.446;6.800;2023-04-25T07:02:45;11.30;;;4.37;;
14613;SDS011;7393;51.446;6.800;2023-04-25T07:05:14;16.97;;;4.97;;
14613;SDS011;7393;51.446;6.800;2023-04-25T07:07:40;13.50;;;4.03;;
14613;SDS011;7393;51.446;6.800;2023-04-25T07:10:07;13.27;;;4.53;;
14613;SDS011;7393;51.446;6.800;2023-04-25T07:12:34;14.73;;;4.97;;
14613;SDS011;7393;51.446;6.800;2023-04-25T07:15:01;14.73;;;5.10;;
14613;SDS011;7393;51.446;6.800;2023-04-25T07:17:31;20.83;;;5.73;;
14613;SDS011;7393;51.446;6.800;2023-04-25T07:19:58;15.77;;;5.63;;
14613;SDS011;7393;51.446;6.800;2023-04-25T07:22:27;19.03;;;6.47;;
14613;SDS011;7393;51.446;6.800;2023-04-25T07:24:53;15.57;;;6.10;;
14613;SDS011;7393;51.446;6.800;2023-04-25T07:27:20;15.80;;;5.77;;
14613;SDS011;7393;51.446;6.800;2023-04-25T07:29:47;25.03;;;8.70;;
14613;SDS011;7393;51.446;6.800;2023-04-25T07:32:14;18.03;;;7.10;;
14613;SDS011;7393;51.446;6.800;2023-04-25T07:34:41;17.13;;;6.90;;
14613;SDS011;7393;51.446;6.800;2023-04-25T07:37:08;19.87;;;6.97;;
14613;SDS011;7393;51.446;6.800;2023-04-25T07:39:36;14.40;;;5.90;;
14613;SDS011;7393;51.446;6.800;2023-04-25T07:42:03;16.57;;;5.90;;
14613;SDS011;7393;51.446;6.800;2023-04-25T07:44:33;17.57;;;5.63;;
14613;SDS011;7393;51.446;6.800;2023-04-25T07:47:03;14.20;;;4.63;;
14613;SDS011;7393;51.446;6.800;2023-04-25T07:49:31;15.30;;;4.63;;
14613;SDS011;7393;51.446;6.800;2023-04-25T07:51:59;14.10;;;4.47;;
14613;SDS011;7393;51.446;6.800;2023-04-25T07:54:25;13.60;;;4.40;;
14613;SDS011;7393;51.446;6.800;2023-04-25T07:56:53;14.33;;;4.60;;
14613;SDS011;7393;51.446;6.800;2023-04-25T07:59:20;9.33;;;3.23;;
14613;SDS011;7393;51.446;6.800;2023-04-25T08:01:47;9.87;;;3.90;;
14613;SDS011;7393;51.446;6.800;2023-04-25T08:04:14;11.07;;;3.93;;
14613;SDS011;7393;51.446;6.800;2023-04-25T08:06:41;13.50;;;3.90;;
14613;SDS011;7393;51.446;6.800;2023-04-25T08:09:08;12.47;;;3.53;;
14613;SDS011;7393;51.446;6.800;2023-04-25T08:11:35;14.77;;;6.30;;
14613;SDS011;7393;51.446;6.800;2023-04-25T08:14:05;16.00;;;6.13;;
14613;SDS011;7393;51.446;6.800;2023-04-25T08:16:32;11.80;;;5.43;;
14613;SDS011;7393;51.446;6.800;2023-04-25T08:18:59;12.57;;;4.17;;
14613;SDS011;7393;51.446;6.800;2023-04-25T08:21:26;14.77;;;4.37;;
14613;SDS011;7393;51.446;6.800;2023-04-25T08:23:53;10.10;;;3.33;;
14613;SDS011;7393;51.446;6.800;2023-04-25T08:26:19;10.73;;;2.93;;
14613;SDS011;7393;51.446;6.800;2023-04-25T08:28:46;10.57;;;2.67;;
14613;SDS011;7393;51.446;6.800;2023-04-25T08:31:14;6.40;;;2.60;;
14613;SDS011;7393;51.446;6.800;2023-04-25T08:33:41;10.27;;;2.20;;
14613;SDS011;7393;51.446;6.800;2023-04-25T08:36:08;13.90;;;3.10;;
14613;SDS011;7393;51.446;6.800;2023-04-25T08:38:35;8.17;;;2.30;;
14613;SDS011;7393;51.446;6.800;2023-04-25T08:41:02;7.13;;;2.40;;
14613;SDS011;7393;51.446;6.800;2023-04-25T08:43:31;10.00;;;2.53;;
14613;SDS011;7393;51.446;6.800;2023-04-25T08:45:58;5.50;;;2.33;;
14613;SDS011;7393;51.446;6.800;2023-04-25T08:48:27;7.87;;;2.27;;
14613;SDS011;7393;51.446;6.800;2023-04-25T08:50:55;8.87;;;2.30;;
14613;SDS011;7393;51.446;6.800;2023-04-25T08:53:25;11.90;;;2.57;;
14613;SDS011;7393;51.446;6.800;2023-04-25T08:55:53;9.70;;;2.37;;
14613;SDS011;7393;51.446;6.800;2023-04-25T08:58:21;7.87;;;2.57;;
14613;SDS011;7393;51.446;6.800;2023-04-25T09:00:49;9.83;;;2.53;;
14613;SDS011;7393;51.446;6.800;2023-04-25T09:03:17;8.93;;;2.27;;
14613;SDS011;7393;51.446;6.800;2023-04-25T09:05:45;8.20;;;2.00;;
14613;SDS011;7393;51.446;6.800;2023-04-25T09:08:11;13.30;;;2.83;;
14613;SDS011;7393;51.446;6.800;2023-04-25T09:10:39;12.90;;;2.50;;
14613;SDS011;7393;51.446;6.800;2023-04-25T09:13:06;7.13;;;2.17;;
14613;SDS011;7393;51.446;6.800;2023-04-25T09:15:46;7.13;;;2.20;;
14613;SDS011;7393;51.446;6.800;2023-04-25T09:18:21;12.33;;;2.70;;
14613;SDS011;7393;51.446;6.800;2023-04-25T09:20:50;10.30;;;2.63;;
14613;SDS011;7393;51.446;6.800;2023-04-25T09:23:18;12.27;;;2.60;;
14613;SDS011;7393;51.446;6.800;2023-04-25T09:25:47;9.67;;;3.20;;
14613;SDS011;7393;51.446;6.800;2023-04-25T09:28:15;12.10;;;3.40;;
14613;SDS011;7393;51.446;6.800;2023-04-25T09:30:41;12.80;;;2.80;;
14613;SDS011;7393;51.446;6.800;2023-04-25T09:33:09;6.90;;;2.07;;
14613;SDS011;7393;51.446;6.800;2023-04-25T09:35:37;10.23;;;2.63;;
14613;SDS011;7393;51.446;6.800;2023-04-25T09:38:10;9.00;;;2.60;;
14613;SDS011;7393;51.446;6.800;2023-04-25T09:40:39;8.00;;;2.40;;
14613;SDS011;7393;51.446;6.800;2023-04-25T09:43:10;9.03;;;2.40;;
14613;SDS011;7393;51.446;6.800;2023-04-25T09:45:41;8.73;;;2.33;;
14613;SDS011;7393;51.446;6.800;2023-04-25T09:48:10;15.73;;;2.27;;
14613;SDS011;7393;51.446;6.800;2023-04-25T09:50:37;4.13;;;1.50;;
14613;SDS011;7393;51.446;6.800;2023-04-25T09:53:05;6.13;;;1.50;;
14613;SDS011;7393;51.446;6.800;2023-04-25T09:55:34;4.93;;;2.03;;
14613;SDS011;7393;51.446;6.800;2023-04-25T09:58:03;5.77;;;1.67;;
14613;SDS011;7393;51.446;6.800;2023-04-25T10:00:31;8.20;;;1.50;;
14613;SDS011;7393;51.446;6.800;2023-04-25T10:02:59;8.53;;;1.83;;
14613;SDS011;7393;51.446;6.800;2023-04-25T10:05:28;5.93;;;1.60;;
14613;SDS011;7393;51.446;6.800;2023-04-25T10:07:58;3.80;;;1.50;;
14613;SDS011;7393;51.446;6.800;2023-04-25T10:10:27;5.80;;;1.57;;
14613;SDS011;7393;51.446;6.800;2023-04-25T10:13:00;5.23;;;1.50;;
14613;SDS011;7393;51.446;6.800;2023-04-25T10:15:27;6.10;;;1.73;;
14613;SDS011;7393;51.446;6.800;2023-04-25T10:17:54;6.00;;;1.50;;
14613;SDS011;7393;51.446;6.800;2023-04-25T10:20:22;7.33;;;1.60;;
14613;SDS011;7393;51.446;6.800;2023-04-25T10:22:49;7.57;;;1.70;;
14613;SDS011;7393;51.446;6.800;2023-04-25T10:25:21;8.23;;;1.87;;
14613;SDS011;7393;51.446;6.800;2023-04-25T10:27:49;6.33;;;1.60;;
14613;SDS011;7393;51.446;6.800;2023-04-25T10:30:18;6.37;;;1.47;;
14613;SDS011;7393;51.446;6.800;2023-04-25T10:32:45;5.53;;;1.87;;
14613;SDS011;7393;51.446;6.800;2023-04-25T10:35:15;5.30;;;1.87;;
14613;SDS011;7393;51.446;6.800;2023-04-25T10:37:56;4.83;;;1.93;;
14613;SDS011;7393;51.446;6.800;2023-04-25T10:40:24;3.93;;;1.40;;
14613;SDS011;7393;51.446;6.800;2023-04-25T10:42:51;4.93;;;1.53;;
14613;SDS011;7393;51.446;6.800;2023-04-25T10:45:20;5.10;;;2.10;;
14613;SDS011;7393;51.446;6.800;2023-04-25T10:47:47;5.27;;;1.87;;
14613;SDS011;7393;51.446;6.800;2023-04-25T10:50:14;4.73;;;1.20;;
14613;SDS011;7393;51.446;6.800;2023-04-25T10:52:41;9.63;;;2.07;;
14613;SDS011;7393;51.446;6.800;2023-04-25T10:55:09;5.00;;;1.47;;
14613;SDS011;7393;51.446;6.800;2023-04-25T10:57:36;7.50;;;1.70;;
14613;SDS011;7393;51.446;6.800;2023-04-25T11:00:06;7.40;;;1.70;;
14613;SDS011;7393;51.446;6.800;2023-04-25T11:02:43;5.20;;;1.40;;
14613;SDS011;7393;51.446;6.800;2023-04-25T11:05:16;4.43;;;1.30;;
14613;SDS011;7393;51.446;6.800;2023-04-25T11:07:49;5.93;;;1.67;;
14613;SDS011;7393;51.446;6.800;2023-04-25T11:10:18;6.73;;;1.50;;
14613;SDS011;7393;51.446;6.800;2023-04-25T11:12:45;5.03;;;1.53;;
14613;SDS011;7393;51.446;6.800;2023-04-25T11:15:12;2.70;;;1.50;;
14613;SDS011;7393;51.446;6.800;2023-04-25T11:17:40;8.60;;;1.80;;
14613;SDS011;7393;51.446;6.800;2023-04-25T11:20:12;6.43;;;1.63;;
14613;SDS011;7393;51.446;6.800;2023-04-25T11:22:40;6.20;;;1.77;;
14613;SDS011;7393;51.446;6.800;2023-04-25T11:25:08;4.13;;;1.40;;
14613;SDS011;7393;51.446;6.800;2023-04-25T11:27:48;7.17;;;1.60;;
14613;SDS011;7393;51.446;6.800;2023-04-25T11:30:16;6.03;;;1.50;;
14613;SDS011;7393;51.446;6.800;2023-04-25T11:32:43;4.20;;;1.50;;
14613;SDS011;7393;51.446;6.800;2023-04-25T11:35:11;5.17;;;1.80;;
14613;SDS011;7393;51.446;6.800;2023-04-25T11:37:40;4.80;;;1.70;;
14613;SDS011;7393;51.446;6.800;2023-04-25T11:40:07;6.57;;;1.90;;
14613;SDS011;7393;51.446;6.800;2023-04-25T11:42:36;5.70;;;1.70;;
14613;SDS011;7393;51.446;6.800;2023-04-25T11:45:03;10.30;;;2.10;;
14613;SDS011;7393;51.446;6.800;2023-04-25T11:47:32;5.40;;;1.83;;
14613;SDS011;7393;51.446;6.800;2023-04-25T11:49:59;10.63;;;3.53;;
14613;SDS011;7393;51.446;6.800;2023-04-25T11:52:36;8.33;;;2.93;;
14613;SDS011;7393;51.446;6.800;2023-04-25T11:55:04;10.07;;;2.90;;
14613;SDS011;7393;51.446;6.800;2023-04-25T11:57:33;8.57;;;2.40;;
14613;SDS011;7393;51.446;6.800;2023-04-25T12:00:07;6.83;;;1.93;;
14613;SDS011;7393;51.446;6.800;2023-04-25T12:02:36;5.93;;;2.27;;
14613;SDS011;7393;51.446;6.800;2023-04-25T12:05:06;4.27;;;1.90;;
14613;SDS011;7393;51.446;6.800;2023-04-25T12:07:34;4.67;;;1.70;;
14613;SDS011;7393;51.446;6.800;2023-04-25T12:10:06;5.40;;;2.10;;
14613;SDS011;7393;51.446;6.800;2023-04-25T12:12:34;4.53;;;2.17;;
14613;SDS011;7393;51.446;6.800;2023-04-25T12:15:09;3.97;;;1.90;;
14613;SDS011;7393;51.446;6.800;2023-04-25T12:17:36;6.60;;;2.20;;
14613;SDS011;7393;51.446;6.800;2023-04-25T12:20:08;5.43;;;2.73;;
14613;SDS011;7393;51.446;6.800;2023-04-25T12:22:37;4.47;;;2.17;;
14613;SDS011;7393;51.446;6.800;2023-04-25T12:25:09;7.07;;;2.20;;
14613;SDS011;7393;51.446;6.800;2023-04-25T12:27:37;4.40;;;1.97;;
14613;SDS011;7393;51.446;6.800;2023-04-25T12:30:05;7.63;;;2.27;;
14613;SDS011;7393;51.446;6.800;2023-04-25T12:32:33;9.00;;;2.40;;
14613;SDS011;7393;51.446;6.800;2023-04-25T12:35:00;7.87;;;2.97;;
14613;SDS011;7393;51.446;6.800;2023-04-25T12:37:28;4.50;;;1.93;;
14613;SDS011;7393;51.446;6.800;2023-04-25T12:39:56;4.13;;;1.80;;
14613;SDS011;7393;51.446;6.800;2023-04-25T12:42:22;6.17;;;1.60;;
14613;SDS011;7393;51.446;6.800;2023-04-25T12:44:49;5.43;;;1.40;;
14613;SDS011;7393;51.446;6.800;2023-04-25T12:47:16;4.43;;;1.93;;
14613;SDS011;7393;51.446;6.800;2023-04-25T12:49:43;4.73;;;2.10;;
14613;SDS011;7393;51.446;6.800;2023-04-25T12:52:09;4.83;;;1.60;;
14613;SDS011;7393;51.446;6.800;2023-04-25T12:54:36;6.40;;;1.60;;
14613;SDS011;7393;51.446;6.800;2023-04-25T12:57:05;5.20;;;1.50;;
14613;SDS011;7393;51.446;6.800;2023-04-25T12:59:32;3.63;;;1.30;;
14613;SDS011;7393;51.446;6.800;2023-04-25T13:01:58;3.60;;;1.57;;
14613;SDS011;7393;51.446;6.800;2023-04-25T13:04:25;4.07;;;1.80;;
14613;SDS011;7393;51.446;6.800;2023-04-25T13:06:52;4.40;;;1.50;;
14613;SDS011;7393;51.446;6.800;2023-04-25T13:09:19;5.50;;;1.83;;
14613;SDS011;7393;51.446;6.800;2023-04-25T13:11:46;6.40;;;1.63;;
14613;SDS011;7393;51.446;6.800;2023-04-25T13:14:14;4.33;;;1.40;;
14613;SDS011;7393;51.446;6.800;2023-04-25T13:16:41;4.20;;;1.23;;
14613;SDS011;7393;51.446;6.800;2023-04-25T13:19:08;3.10;;;1.33;;
14613;SDS011;7393;51.446;6.800;2023-04-25T13:21:36;9.27;;;1.73;;
14613;SDS011;7393;51.446;6.800;2023-04-25T13:24:03;6.30;;;1.27;;
14613;SDS011;7393;51.446;6.800;2023-04-25T13:26:30;4.60;;;1.50;;
14613;SDS011;7393;51.446;6.800;2023-04-25T13:28:57;6.00;;;1.57;;
14613;SDS011;7393;51.446;6.800;2023-04-25T13:31:26;10.10;;;1.87;;
14613;SDS011;7393;51.446;6.800;2023-04-25T13:33:53;3.37;;;1.70;;
14613;SDS011;7393;51.446;6.800;2023-04-25T13:36:20;5.13;;;1.63;;
14613;SDS011;7393;51.446;6.800;2023-04-25T13:38:47;6.30;;;2.00;;
14613;SDS011;7393;51.446;6.800;2023-04-25T13:41:14;9.63;;;2.60;;
14613;SDS011;7393;51.446;6.800;2023-04-25T13:43:43;5.10;;;1.90;;
14613;SDS011;7393;51.446;6.800;2023-04-25T13:46:11;6.40;;;2.00;;
14613;SDS011;7393;51.446;6.800;2023-04-25T13:48:41;6.20;;;2.00;;
14613;SDS011;7393;51.446;6.800;2023-04-25T13:51:12;8.37;;;2.30;;
14613;SDS011;7393;51.446;6.800;2023-04-25T13:53:40;8.27;;;2.20;;
14613;SDS011;7393;51.446;6.800;2023-04-25T13:56:07;5.80;;;1.93;;
14613;SDS011;7393;51.446;6.800;2023-04-25T13:58:33;5.27;;;1.70;;
14613;SDS011;7393;51.446;6.800;2023-04-25T14:01:00;5.07;;;1.27;;
14613;SDS011;7393;51.446;6.800;2023-04-25T14:03:28;3.67;;;1.47;;
14613;SDS011;7393;51.446;6.800;2023-04-25T14:05:56;3.47;;;1.43;;
14613;SDS011;7393;51.446;6.800;2023-04-25T14:08:23;5.40;;;1.33;;
14613;SDS011;7393;51.446;6.800;2023-04-25T14:10:50;4.10;;;1.60;;
14613;SDS011;7393;51.446;6.800;2023-04-25T14:13:17;3.53;;;1.30;;
14613;SDS011;7393;51.446;6.800;2023-04-25T14:15:44;4.93;;;1.70;;
14613;SDS011;7393;51.446;6.800;2023-04-25T14:18:11;3.43;;;1.30;;
14613;SDS011;7393;51.446;6.800;2023-04-25T14:20:38;2.60;;;1.20;;
14613;SDS011;7393;51.446;6.800;2023-04-25T14:23:06;2.30;;;1.17;;
14613;SDS011;7393;51.446;6.800;2023-04-25T14:25:33;4.07;;;1.20;;
14613;SDS011;7393;51.446;6.800;2023-04-25T14:28:01;6.40;;;1.43;;
14613;SDS011;7393;51.446;6.800;2023-04-25T14:30:28;4.10;;;1.33;;
14613;SDS011;7393;51.446;6.800;2023-04-25T14:32:55;4.03;;;1.10;;
14613;SDS011;7393;51.446;6.800;2023-04-25T14:35:21;2.70;;;1.23;;
14613;SDS011;7393;51.446;6.800;2023-04-25T14:37:48;4.17;;;1.60;;
14613;SDS011;7393;51.446;6.800;2023-04-25T14:40:16;9.20;;;1.83;;
14613;SDS011;7393;51.446;6.800;2023-04-25T14:42:43;5.50;;;1.60;;
14613;SDS011;7393;51.446;6.800;2023-04-25T14:45:10;5.00;;;1.47;;
14613;SDS011;7393;51.446;6.800;2023-04-25T14:47:37;5.87;;;1.70;;
14613;SDS011;7393;51.446;6.800;2023-04-25T14:50:05;8.70;;;1.73;;
14613;SDS011;7393;51.446;6.800;2023-04-25T14:52:33;6.17;;;1.83;;
14613;SDS011;7393;51.446;6.800;2023-04-25T14:55:00;5.67;;;1.87;;
14613;SDS011;7393;51.446;6.800;2023-04-25T14:57:31;4.00;;;1.47;;